Pagrindinis puslapis
METAR-TAF:

METAR-TAF

Oro uostai :

Lake City, Florida, Jungtinės Amerikos Valstijos

platuma: 30-10-55N, ilguma: 082-34-37W, Aukštis: 61 m

Dabartinis oras

Ataskaita buvo paskelbta 34 minutes, ne 03:50 UTC
Vėjas 3 kt iš Pietų/Pietvakarių
Temperatūra 22°C
Drėgmė 88%
Slėgis 1019 hPa
Matomumas: 16.1 km
Išsisklaidę debesys ne aukštis 9000 ft
Išsisklaidę debesys ne aukštis 12000 ft
dulksna

METAR: KLCQ 290350Z AUTO 21003KT 10SM -DZ SCT090 SCT120 22/20 A3009 RMK AO2 LTG DSNT S P0001

Laikas: 00:24 (04:24 UTC)


TAF: trūkstamas

Orai ataskaitas ir orų prognozės (METAR, TAF).

turimą stotys yra geltonos ir raudonos taškus žemėlapyje.

Perkelti pele per norėdami pamatyti stoties vardą.

Tada spustelėkite, norėdami matyti oro stebėjimo ir prognozės.

Norėdami pakeisti žemėlapį: spustelėkite ant žalios mygtukų su juodo kryžiaus žemyn,; žalią mygtuką su brūkšneliu, jei norite nutolinti; arba žalių rodyklių gretimoms žemėlapius.


METAR-TAF: